createdAt,value
2022-09-28T00:01:20.774Z,4.22
2022-09-28T00:03:49.220Z,4.75
2022-09-28T00:06:18.749Z,4.10
2022-09-28T00:08:45.605Z,5.25
2022-09-28T00:11:15.100Z,5.22
2022-09-28T00:13:46.126Z,3.75
2022-09-28T00:16:15.932Z,3.83
2022-09-28T00:18:43.615Z,6.05
2022-09-28T00:21:18.587Z,4.53
2022-09-28T00:24:04.299Z,4.65
2022-09-28T00:26:32.925Z,4.60
2022-09-28T00:29:01.693Z,4.25
2022-09-28T00:31:32.638Z,4.72
2022-09-28T00:34:01.012Z,5.60
2022-09-28T00:36:29.513Z,6.25
2022-09-28T00:38:56.905Z,8.45
2022-09-28T00:41:25.548Z,5.50
2022-09-28T00:43:53.059Z,5.93
2022-09-28T00:46:28.901Z,5.43
2022-09-28T00:49:03.078Z,4.95
2022-09-28T00:54:00.268Z,5.20
2022-09-28T00:56:29.518Z,7.22
2022-09-28T00:58:58.945Z,7.63
2022-09-28T01:01:27.577Z,5.90
2022-09-28T01:03:54.759Z,6.32
2022-09-28T01:06:23.542Z,6.68
2022-09-28T01:08:53.635Z,6.25
2022-09-28T01:11:20.585Z,7.05
2022-09-28T01:13:50.546Z,6.13
2022-09-28T01:16:41.619Z,6.82
2022-09-28T01:19:51.280Z,7.50
2022-09-28T01:22:54.129Z,7.53
2022-09-28T01:25:45.702Z,7.88
2022-09-28T01:28:19.308Z,9.18
2022-09-28T01:31:00.624Z,9.20
2022-09-28T01:33:35.561Z,10.02
2022-09-28T01:36:18.605Z,9.85
2022-09-28T01:38:55.832Z,9.52
2022-09-28T01:41:26.169Z,11.50
2022-09-28T01:43:56.419Z,10.52
2022-09-28T01:46:31.805Z,12.93
2022-09-28T01:49:02.219Z,11.82
2022-09-28T01:51:41.024Z,11.60
2022-09-28T01:54:21.008Z,12.65
2022-09-28T01:56:55.758Z,11.18
2022-09-28T01:59:27.142Z,9.73
2022-09-28T02:02:02.187Z,12.07
2022-09-28T02:05:02.593Z,12.32
2022-09-28T02:07:42.506Z,12.40
2022-09-28T02:10:22.428Z,13.30
2022-09-28T02:12:56.227Z,12.82
2022-09-28T02:15:33.379Z,11.98
2022-09-28T02:18:00.339Z,11.32
2022-09-28T02:20:31.973Z,11.73
2022-09-28T02:23:01.335Z,12.95
2022-09-28T02:25:31.418Z,14.27
2022-09-28T02:28:02.256Z,13.18
2022-09-28T02:30:35.735Z,13.07
2022-09-28T02:33:32.935Z,12.93
2022-09-28T02:36:00.718Z,15.15
2022-09-28T02:38:29.257Z,12.50
2022-09-28T02:41:36.510Z,14.88
2022-09-28T02:44:12.260Z,16.45
2022-09-28T02:46:54.508Z,12.38
2022-09-28T02:49:49.471Z,15.70
2022-09-28T02:52:45.572Z,12.77
2022-09-28T02:55:25.891Z,13.65
2022-09-28T02:58:34.415Z,13.20
2022-09-28T03:01:26.960Z,13.48
2022-09-28T03:04:13.192Z,11.77
2022-09-28T03:07:00.708Z,12.73
2022-09-28T03:09:37.052Z,15.65
2022-09-28T03:12:11.090Z,14.05
2022-09-28T03:14:37.634Z,12.15
2022-09-28T03:17:04.654Z,12.88
2022-09-28T03:19:33.784Z,13.48
2022-09-28T03:22:00.722Z,13.93
2022-09-28T03:24:27.405Z,16.30
2022-09-28T03:26:54.098Z,12.75
2022-09-28T03:29:22.211Z,16.75
2022-09-28T03:31:55.000Z,13.20
2022-09-28T03:34:21.824Z,11.70
2022-09-28T03:36:48.384Z,12.95
2022-09-28T03:39:15.022Z,15.18
2022-09-28T03:41:41.668Z,14.95
2022-09-28T03:44:08.317Z,13.38
2022-09-28T03:46:34.946Z,14.32
2022-09-28T03:49:05.865Z,13.57
2022-09-28T03:51:32.396Z,11.63
2022-09-28T03:53:58.893Z,15.63
2022-09-28T03:56:26.045Z,12.98
2022-09-28T03:58:52.631Z,12.82
2022-09-28T04:01:19.490Z,13.43
2022-09-28T04:03:47.722Z,14.88
2022-09-28T04:06:15.144Z,12.88
2022-09-28T04:08:43.329Z,13.82
2022-09-28T04:11:10.423Z,15.02
2022-09-28T04:13:37.267Z,15.63
2022-09-28T04:16:05.965Z,13.65
2022-09-28T04:18:35.150Z,13.15
2022-09-28T04:21:13.124Z,15.38
2022-09-28T04:23:44.580Z,14.85
2022-09-28T04:26:20.125Z,16.25
2022-09-28T04:29:07.099Z,16.08
2022-09-28T04:31:42.280Z,15.07
2022-09-28T04:34:09.383Z,14.50
2022-09-28T04:36:35.946Z,16.92
2022-09-28T04:39:02.581Z,18.90
2022-09-28T04:41:31.108Z,18.65
2022-09-28T04:43:57.705Z,19.98
2022-09-28T04:46:26.075Z,19.35
2022-09-28T04:49:12.657Z,18.42
2022-09-28T04:51:52.262Z,17.73
2022-09-28T04:54:18.929Z,19.92
2022-09-28T04:56:45.607Z,20.30
2022-09-28T04:59:13.453Z,20.85
2022-09-28T05:01:41.222Z,20.63
2022-09-28T05:04:24.979Z,22.52
2022-09-28T05:07:11.313Z,21.55
2022-09-28T05:09:38.740Z,23.60
2022-09-28T05:12:05.604Z,23.70
2022-09-28T05:14:32.161Z,22.75
2022-09-28T05:16:58.987Z,23.20
2022-09-28T05:19:25.523Z,24.20
2022-09-28T05:21:58.054Z,21.98
2022-09-28T05:24:24.896Z,23.80
2022-09-28T05:26:53.063Z,21.73
2022-09-28T05:29:19.853Z,25.75
2022-09-28T05:32:05.216Z,24.15
2022-09-28T05:51:46.654Z,22.98
2022-09-28T05:54:13.572Z,24.25
2022-09-28T05:56:44.095Z,23.38
2022-09-28T05:59:12.079Z,23.38
2022-09-28T06:01:38.829Z,25.45
2022-09-28T06:04:09.004Z,24.85
2022-09-28T06:06:36.738Z,25.83
2022-09-28T06:09:03.316Z,25.25
2022-09-28T06:11:32.689Z,21.80
2022-09-28T06:14:05.089Z,23.80
2022-09-28T06:16:32.349Z,24.08
2022-09-28T06:18:58.941Z,24.98
2022-09-28T06:21:58.418Z,23.25
2022-09-28T06:24:26.005Z,21.50
2022-09-28T06:26:52.838Z,23.40
2022-09-28T06:29:20.569Z,23.95
2022-09-28T06:31:47.292Z,23.48
2022-09-28T06:34:14.264Z,27.88
2022-09-28T06:36:40.966Z,24.33
2022-09-28T06:39:07.754Z,23.83
2022-09-28T06:41:35.816Z,22.88
2022-09-28T06:44:12.530Z,25.52
2022-09-28T06:47:17.732Z,23.27
2022-09-28T06:49:55.391Z,21.80
2022-09-28T06:52:51.493Z,23.08
2022-09-28T06:55:28.847Z,24.20
2022-09-28T06:57:58.557Z,24.80
2022-09-28T07:00:27.006Z,21.67
2022-09-28T07:02:54.305Z,25.10
2022-09-28T07:05:56.816Z,21.20
2022-09-28T07:08:41.758Z,24.40
2022-09-28T07:11:44.722Z,23.30
2022-09-28T07:14:45.579Z,24.42
2022-09-28T07:17:14.496Z,23.50
2022-09-28T07:41:34.001Z,21.50
2022-09-28T07:44:06.360Z,22.38
2022-09-28T07:46:36.040Z,21.17
2022-09-28T07:49:12.380Z,23.05
2022-09-28T07:51:54.436Z,25.23
2022-09-28T07:54:27.498Z,22.70
2022-09-28T07:57:13.293Z,20.67
2022-09-28T08:00:08.129Z,20.58
2022-09-28T08:02:48.299Z,21.00
2022-09-28T08:05:22.003Z,22.23
2022-09-28T08:07:48.634Z,22.98
2022-09-28T08:10:17.345Z,20.88
2022-09-28T08:13:03.309Z,20.35
2022-09-28T08:15:37.012Z,20.45
2022-09-28T08:18:13.923Z,20.00
2022-09-28T08:20:58.906Z,23.13
2022-09-28T08:23:26.066Z,19.65
2022-09-28T08:25:54.243Z,19.55
2022-09-28T08:28:23.757Z,19.35
2022-09-28T08:30:54.319Z,21.55
2022-09-28T08:33:41.210Z,22.63
2022-09-28T08:36:26.119Z,22.15
2022-09-28T08:39:01.701Z,22.50
2022-09-28T08:42:15.779Z,20.98
2022-09-28T08:45:23.457Z,24.13
2022-09-28T08:48:51.762Z,20.27
2022-09-28T08:51:59.310Z,21.50
2022-09-28T08:54:45.047Z,23.60
2022-09-28T08:57:27.515Z,19.42
2022-09-28T09:00:00.150Z,20.73
2022-09-28T09:02:33.573Z,18.70
2022-09-28T09:05:20.408Z,17.50
2022-09-28T09:08:19.202Z,22.70
2022-09-28T09:10:52.741Z,17.88
2022-09-28T09:13:50.958Z,17.83
2022-09-28T09:17:00.541Z,18.42
2022-09-28T09:20:15.604Z,19.00
2022-09-28T09:23:05.180Z,18.30
2022-09-28T09:25:47.383Z,17.23
2022-09-28T09:28:32.697Z,18.35
2022-09-28T09:31:17.690Z,17.40
2022-09-28T09:34:36.998Z,20.27
2022-09-28T09:38:00.387Z,17.55
2022-09-28T09:41:01.348Z,18.88
2022-09-28T09:44:27.442Z,18.40
2022-09-28T09:47:14.952Z,18.45
2022-09-28T09:49:51.324Z,16.15
2022-09-28T09:52:21.183Z,16.50
2022-09-28T09:54:51.473Z,17.23
2022-09-28T09:57:51.802Z,18.27
2022-09-28T10:00:51.853Z,18.75
2022-09-28T10:03:34.691Z,17.15
2022-09-28T10:06:16.738Z,18.55
2022-09-28T10:09:04.352Z,18.65
2022-09-28T10:11:41.154Z,15.38
2022-09-28T10:14:15.849Z,15.98
2022-09-28T10:16:48.445Z,16.70
2022-09-28T10:19:35.416Z,16.13
2022-09-28T10:22:23.887Z,15.40
2022-09-28T10:24:54.837Z,15.77
2022-09-28T10:27:29.720Z,16.52
2022-09-28T10:30:16.091Z,16.73
2022-09-28T10:32:44.782Z,15.25
2022-09-28T10:35:27.973Z,17.50
2022-09-28T10:38:15.057Z,17.85
2022-09-28T10:40:51.135Z,17.58
2022-09-28T10:43:33.464Z,18.05
2022-09-28T10:46:09.172Z,18.50
2022-09-28T10:48:45.573Z,16.75
2022-09-28T10:51:12.178Z,20.80
2022-09-28T10:53:40.130Z,20.25
2022-09-28T10:56:21.877Z,21.65
2022-09-28T10:58:53.530Z,21.40
2022-09-28T11:01:33.380Z,17.98
2022-09-28T11:04:08.022Z,18.73
2022-09-28T11:06:39.050Z,19.75
2022-09-28T11:09:30.591Z,21.17
2022-09-28T11:12:04.909Z,23.80
2022-09-28T11:14:43.549Z,27.02
2022-09-28T11:17:33.456Z,22.30
2022-09-28T11:20:26.060Z,20.92
2022-09-28T11:22:59.125Z,22.20
2022-09-28T11:25:31.334Z,21.95
2022-09-28T11:28:04.353Z,23.80
2022-09-28T11:31:01.470Z,19.45
2022-09-28T11:33:41.320Z,23.63
2022-09-28T11:36:29.542Z,23.30
2022-09-28T11:39:03.201Z,21.95
2022-09-28T11:42:31.468Z,19.67
2022-09-28T11:45:19.680Z,20.98
2022-09-28T11:47:51.680Z,22.40
2022-09-28T11:50:28.321Z,19.98
2022-09-28T11:53:10.836Z,20.67
2022-09-28T11:55:46.703Z,22.20
2022-09-28T11:58:23.363Z,17.67
2022-09-28T12:01:19.362Z,19.98
2022-09-28T12:04:20.624Z,18.85
2022-09-28T12:06:53.396Z,17.95
2022-09-28T12:09:32.553Z,18.15
2022-09-28T12:12:22.108Z,16.13
2022-09-28T12:14:57.163Z,18.85
2022-09-28T12:17:30.772Z,18.13
2022-09-28T12:20:05.390Z,16.45
2022-09-28T12:22:40.763Z,14.18
2022-09-28T12:25:14.842Z,13.25
2022-09-28T12:27:48.308Z,13.30
2022-09-28T12:30:21.439Z,14.80
2022-09-28T12:32:54.021Z,13.05
2022-09-28T12:35:53.487Z,13.07
2022-09-28T12:38:40.614Z,12.13
2022-09-28T12:41:13.138Z,12.15
2022-09-28T12:43:49.415Z,10.60
2022-09-28T12:46:42.358Z,12.63
2022-09-28T12:50:20.002Z,10.32
2022-09-28T12:52:29.058Z,12.82
2022-09-28T12:55:22.027Z,12.95
2022-09-28T12:58:16.526Z,11.23
2022-09-28T13:01:06.222Z,10.05
2022-09-28T13:03:45.028Z,11.55
2022-09-28T13:06:36.009Z,10.43
2022-09-28T13:09:25.578Z,12.02
2022-09-28T13:12:11.690Z,12.85
2022-09-28T13:14:38.126Z,11.15
2022-09-28T13:17:20.491Z,9.45
2022-09-28T13:20:21.306Z,10.38
2022-09-28T13:23:09.732Z,10.68
2022-09-28T13:25:40.967Z,13.77
2022-09-28T13:28:07.537Z,12.88
2022-09-28T13:30:38.971Z,12.43
2022-09-28T13:33:07.813Z,11.60
2022-09-28T13:35:34.924Z,13.70
2022-09-28T13:38:16.439Z,14.10
2022-09-28T13:41:04.735Z,12.70
2022-09-28T13:43:35.301Z,12.80
2022-09-28T13:46:20.533Z,10.25
2022-09-28T13:49:03.257Z,11.68
2022-09-28T13:51:48.516Z,11.93
2022-09-28T13:54:46.546Z,9.93
2022-09-28T13:57:21.293Z,12.32
2022-09-28T14:00:10.823Z,11.65
2022-09-28T14:02:46.532Z,12.20
2022-09-28T14:05:46.248Z,14.23
2022-09-28T14:08:26.105Z,13.07
2022-09-28T14:11:24.563Z,10.40
2022-09-28T14:14:11.770Z,9.35
2022-09-28T14:16:39.458Z,9.23
2022-09-28T14:19:24.254Z,10.63
2022-09-28T14:22:18.178Z,7.55
2022-09-28T14:24:55.488Z,10.23
2022-09-28T14:27:52.111Z,9.73
2022-09-28T14:30:34.924Z,13.32
2022-09-28T14:33:16.372Z,12.18
2022-09-28T14:35:56.415Z,9.75
2022-09-28T14:38:49.857Z,11.13
2022-09-28T14:41:17.633Z,10.18
2022-09-28T14:43:44.052Z,12.02
2022-09-28T14:46:23.176Z,10.50
2022-09-28T14:49:25.025Z,11.52
2022-09-28T14:51:51.437Z,10.27
2022-09-28T14:54:21.127Z,11.10
2022-09-28T14:56:53.476Z,11.27
2022-09-28T14:59:22.484Z,10.63
2022-09-28T15:02:01.402Z,9.38
2022-09-28T15:04:30.593Z,9.80
2022-09-28T15:07:00.234Z,9.65
2022-09-28T15:09:31.939Z,12.30
2022-09-28T15:12:18.559Z,9.45
2022-09-28T15:15:04.442Z,10.50
2022-09-28T15:17:40.053Z,10.70
2022-09-28T15:20:22.622Z,7.78
2022-09-28T15:22:51.752Z,11.07
2022-09-28T15:25:21.413Z,13.15
2022-09-28T15:27:54.147Z,9.88
2022-09-28T15:30:29.702Z,8.85
2022-09-28T15:33:17.952Z,10.30
2022-09-28T15:36:01.998Z,9.98
2022-09-28T15:38:31.040Z,9.63
2022-09-28T15:40:57.908Z,8.82
2022-09-28T15:43:32.789Z,9.15
2022-09-28T15:46:21.528Z,8.30
2022-09-28T15:48:59.511Z,8.07
2022-09-28T15:51:27.473Z,9.48
2022-09-28T15:54:04.165Z,10.18
2022-09-28T15:56:31.275Z,9.00
2022-09-28T15:59:15.659Z,10.57
2022-09-28T16:01:43.769Z,8.35
2022-09-28T16:04:39.770Z,8.95
2022-09-28T16:07:09.195Z,6.97
2022-09-28T16:10:05.352Z,8.65
2022-09-28T16:12:37.783Z,8.40
2022-09-28T16:15:20.430Z,7.20
2022-09-28T16:18:01.397Z,8.88
2022-09-28T16:20:31.989Z,8.38
2022-09-28T16:23:06.028Z,7.75
2022-09-28T16:25:38.041Z,10.10
2022-09-28T16:28:06.237Z,8.05
2022-09-28T16:30:34.541Z,8.38
2022-09-28T16:33:25.694Z,9.13
2022-09-28T16:35:53.116Z,8.88
2022-09-28T16:38:20.010Z,10.30
2022-09-28T16:40:54.831Z,7.55
2022-09-28T16:43:26.952Z,6.90
2022-09-28T16:45:57.556Z,7.35
2022-09-28T16:48:29.134Z,10.82
2022-09-28T16:50:56.713Z,8.02
2022-09-28T16:53:41.822Z,7.65
2022-09-28T16:56:08.771Z,9.10
2022-09-28T16:58:36.099Z,7.07
2022-09-28T17:01:02.814Z,9.93
2022-09-28T17:03:31.199Z,9.02
2022-09-28T17:05:57.766Z,10.68
2022-09-28T17:08:24.883Z,9.57
2022-09-28T17:11:15.886Z,11.35
2022-09-28T17:13:45.943Z,10.82
2022-09-28T17:16:14.078Z,11.77
2022-09-28T17:18:41.170Z,9.98
2022-09-28T17:21:12.225Z,9.30
2022-09-28T17:23:38.788Z,9.73
2022-09-28T17:26:06.700Z,9.32
2022-09-28T17:28:35.914Z,9.52
2022-09-28T17:31:04.276Z,9.95
2022-09-28T17:33:31.088Z,10.57
2022-09-28T17:36:00.567Z,9.20
2022-09-28T17:38:27.844Z,14.13
2022-09-28T17:40:54.454Z,12.75
2022-09-28T17:43:22.200Z,13.77
2022-09-28T17:45:49.508Z,13.40
2022-09-28T17:48:23.938Z,12.80
2022-09-28T17:50:51.170Z,12.60
2022-09-28T17:53:17.826Z,12.45
2022-09-28T17:55:44.277Z,11.55
2022-09-28T17:58:19.266Z,9.85
2022-09-28T18:00:47.848Z,10.88
2022-09-28T18:03:17.190Z,10.35
2022-09-28T18:05:44.590Z,11.88
2022-09-28T18:08:15.371Z,14.27
2022-09-28T18:10:41.945Z,15.32
2022-09-28T18:13:09.043Z,15.60
2022-09-28T18:15:36.115Z,15.35
2022-09-28T18:18:02.822Z,15.13
2022-09-28T18:20:29.710Z,13.60
2022-09-28T18:22:56.953Z,15.57
2022-09-28T18:25:23.546Z,14.15
2022-09-28T18:27:50.123Z,13.75
2022-09-28T18:30:16.885Z,13.55
2022-09-28T18:32:43.422Z,14.80
2022-09-28T18:35:11.175Z,13.45
2022-09-28T18:37:40.317Z,12.13
2022-09-28T18:40:12.887Z,13.48
2022-09-28T18:42:40.429Z,11.70
2022-09-28T18:45:11.149Z,11.90
2022-09-28T18:47:39.063Z,13.88
2022-09-28T18:50:06.432Z,11.32
2022-09-28T18:52:36.289Z,13.90
2022-09-28T18:55:03.219Z,12.63
2022-09-28T18:57:33.058Z,13.40
2022-09-28T19:00:07.119Z,13.52
2022-09-28T19:02:33.768Z,13.57
2022-09-28T19:05:00.491Z,13.63
2022-09-28T19:07:27.310Z,14.77
2022-09-28T19:09:53.773Z,13.40
2022-09-28T19:12:20.815Z,13.82
2022-09-28T19:14:47.533Z,15.05
2022-09-28T19:17:14.175Z,15.77
2022-09-28T19:19:42.702Z,14.23
2022-09-28T19:22:09.581Z,18.40
2022-09-28T19:24:36.103Z,15.45
2022-09-28T19:27:02.695Z,18.40
2022-09-28T19:29:29.466Z,17.85
2022-09-28T19:31:57.047Z,15.52
2022-09-28T19:34:26.877Z,15.48
2022-09-28T19:36:53.471Z,14.13
2022-09-28T19:39:20.067Z,14.57
2022-09-28T19:41:53.041Z,16.73
2022-09-28T19:44:27.491Z,13.85
2022-09-28T19:46:59.367Z,13.20
2022-09-28T19:49:27.492Z,16.80
2022-09-28T19:52:13.836Z,18.42
2022-09-28T19:54:56.459Z,16.88
2022-09-28T19:57:31.248Z,18.42
2022-09-28T20:00:02.101Z,19.92
2022-09-28T20:02:33.485Z,19.98
2022-09-28T20:05:00.297Z,17.73
2022-09-28T20:07:26.793Z,18.23
2022-09-28T20:09:53.421Z,16.77
2022-09-28T20:12:20.193Z,15.68
2022-09-28T20:14:46.927Z,15.57
2022-09-28T20:17:13.619Z,15.98
2022-09-28T20:19:40.408Z,14.93
2022-09-28T20:22:07.162Z,14.50
2022-09-28T20:24:33.814Z,15.52
2022-09-28T20:27:02.537Z,18.88
2022-09-28T20:29:32.087Z,14.15
2022-09-28T20:31:59.158Z,14.85
2022-09-28T20:34:25.882Z,14.57
2022-09-28T20:36:52.593Z,12.43
2022-09-28T20:39:19.355Z,13.23
2022-09-28T20:41:47.282Z,11.50
2022-09-28T20:44:17.121Z,13.32
2022-09-28T20:46:44.279Z,14.90
2022-09-28T20:49:11.066Z,12.30
2022-09-28T20:51:37.662Z,13.75
2022-09-28T20:54:04.559Z,12.13
2022-09-28T20:56:37.712Z,12.75
2022-09-28T20:59:09.860Z,15.65
2022-09-28T21:01:36.448Z,13.68
2022-09-28T21:04:28.508Z,12.32
2022-09-28T21:06:55.076Z,12.65
2022-09-28T21:09:21.627Z,15.25
2022-09-28T21:11:48.467Z,13.45
2022-09-28T21:14:15.087Z,11.80
2022-09-28T21:16:41.583Z,13.82
2022-09-28T21:19:08.117Z,11.63
2022-09-28T21:21:34.737Z,11.10
2022-09-28T21:24:02.004Z,12.15
2022-09-28T21:26:31.001Z,13.95
2022-09-28T21:29:06.229Z,13.38
2022-09-28T21:31:39.103Z,12.57
2022-09-28T21:34:06.225Z,10.57
2022-09-28T21:36:33.690Z,11.95
2022-09-28T21:39:00.200Z,11.85
2022-09-28T21:41:27.103Z,13.82
2022-09-28T21:43:53.770Z,12.05
2022-09-28T21:46:20.413Z,12.15
2022-09-28T21:48:51.406Z,10.48
2022-09-28T21:51:17.917Z,10.80
2022-09-28T21:53:44.531Z,10.80
2022-09-28T21:56:12.813Z,13.02
2022-09-28T21:58:40.010Z,13.27
2022-09-28T22:01:25.456Z,13.40
2022-09-28T22:03:55.161Z,12.30
2022-09-28T22:06:23.654Z,12.38
2022-09-28T22:08:50.696Z,10.05
2022-09-28T22:11:26.296Z,13.30
2022-09-28T22:13:55.192Z,11.48
2022-09-28T22:16:30.737Z,14.88
2022-09-28T22:18:57.752Z,11.38
2022-09-28T22:21:30.180Z,10.63
2022-09-28T22:24:01.270Z,11.30
2022-09-28T22:26:29.266Z,13.27
2022-09-28T22:28:58.103Z,9.73
2022-09-28T22:31:30.224Z,11.00
2022-09-28T22:33:57.766Z,12.60
2022-09-28T22:36:25.870Z,15.18
2022-09-28T22:38:54.533Z,10.60
2022-09-28T22:41:21.910Z,10.63
2022-09-28T22:43:50.261Z,11.23
2022-09-28T22:46:20.111Z,11.82
2022-09-28T22:48:54.676Z,12.90
2022-09-28T22:51:22.102Z,13.07
2022-09-28T22:53:48.832Z,10.55
2022-09-28T22:56:18.759Z,11.02
2022-09-28T22:58:46.466Z,11.10
2022-09-28T23:01:18.549Z,11.48
2022-09-28T23:03:45.398Z,10.80
2022-09-28T23:06:14.122Z,13.55
2022-09-28T23:08:40.619Z,11.30
2022-09-28T23:11:07.307Z,9.63
2022-09-28T23:13:35.088Z,9.70
2022-09-28T23:16:07.042Z,11.18
2022-09-28T23:18:36.397Z,11.90
2022-09-28T23:21:07.563Z,11.25
2022-09-28T23:23:34.418Z,10.00
2022-09-28T23:26:09.312Z,12.18
2022-09-28T23:28:35.809Z,9.38
2022-09-28T23:31:14.474Z,10.82
2022-09-28T23:33:41.494Z,12.23
2022-09-28T23:36:08.948Z,14.05
2022-09-28T23:38:35.482Z,11.25
2022-09-28T23:41:02.252Z,12.27
2022-09-28T23:43:28.926Z,9.45
2022-09-28T23:45:55.407Z,10.35
2022-09-28T23:48:21.849Z,9.52
2022-09-28T23:50:48.707Z,12.15
2022-09-28T23:53:15.238Z,9.30
2022-09-28T23:55:42.556Z,11.13
2022-09-28T23:58:10.086Z,10.68
